createdAt,value
2023-05-22T00:00:41.312Z,12.80
2023-05-22T00:03:11.011Z,12.80
2023-05-22T00:05:41.257Z,12.80
2023-05-22T00:08:12.123Z,12.80
2023-05-22T00:10:40.824Z,12.80
2023-05-22T00:13:09.227Z,12.70
2023-05-22T00:15:37.689Z,12.70
2023-05-22T00:18:06.461Z,12.80
2023-05-22T00:20:39.574Z,12.70
2023-05-22T00:23:10.381Z,12.70
2023-05-22T00:25:41.000Z,12.70
2023-05-22T00:28:09.461Z,12.70
2023-05-22T00:30:38.685Z,12.70
2023-05-22T00:33:07.284Z,12.70
2023-05-22T00:35:35.565Z,12.70
2023-05-22T00:38:05.664Z,12.70
2023-05-22T00:40:34.017Z,12.70
2023-05-22T00:43:08.481Z,12.70
2023-05-22T00:45:37.091Z,12.60
2023-05-22T00:48:06.253Z,12.70
2023-05-22T00:50:34.525Z,12.60
2023-05-22T00:53:03.232Z,12.60
2023-05-22T00:55:31.946Z,12.60
2023-05-22T00:58:00.281Z,12.60
2023-05-22T01:00:30.023Z,12.60
2023-05-22T01:02:58.422Z,12.60
2023-05-22T01:05:26.807Z,12.60
2023-05-22T01:07:55.200Z,12.60
2023-05-22T01:10:23.677Z,12.70
2023-05-22T01:13:01.978Z,12.70
2023-05-22T01:15:37.125Z,12.70
2023-05-22T01:18:13.450Z,12.70
2023-05-22T01:20:48.829Z,12.70
2023-05-22T01:23:44.689Z,12.70
2023-05-22T01:26:44.848Z,12.70
2023-05-22T01:29:36.938Z,12.80
2023-05-22T01:32:08.465Z,12.80
2023-05-22T01:34:38.508Z,12.80
2023-05-22T01:37:07.611Z,12.80
2023-05-22T01:39:36.840Z,12.80
2023-05-22T01:42:06.113Z,12.90
2023-05-22T01:44:34.327Z,12.90
2023-05-22T01:47:05.315Z,12.90
2023-05-22T01:49:36.796Z,12.90
2023-05-22T01:52:13.979Z,12.90
2023-05-22T01:54:47.099Z,12.90
2023-05-22T01:57:21.929Z,12.90
2023-05-22T01:59:55.784Z,12.90
2023-05-22T02:02:25.793Z,12.90
2023-05-22T02:05:01.012Z,12.90
2023-05-22T02:07:31.654Z,13.00
2023-05-22T02:10:01.502Z,13.00
2023-05-22T02:12:30.074Z,13.00
2023-05-22T02:14:58.829Z,13.00
2023-05-22T02:17:27.461Z,13.00
2023-05-22T02:19:57.030Z,13.00
2023-05-22T02:22:25.187Z,13.00
2023-05-22T02:24:53.759Z,13.00
2023-05-22T02:27:21.928Z,13.00
2023-05-22T02:29:50.108Z,13.00
2023-05-22T02:32:18.591Z,13.00
2023-05-22T02:34:48.295Z,13.00
2023-05-22T02:37:17.840Z,12.90
2023-05-22T02:39:46.429Z,13.00
2023-05-22T02:42:14.649Z,13.00
2023-05-22T02:44:42.826Z,13.00
2023-05-22T02:47:11.190Z,13.00
2023-05-22T02:49:39.381Z,13.00
2023-05-22T02:52:07.913Z,12.90
2023-05-22T02:54:37.620Z,12.90
2023-05-22T02:57:06.078Z,12.80
2023-05-22T02:59:35.927Z,12.80
2023-05-22T03:02:04.650Z,12.90
2023-05-22T03:04:33.039Z,12.90
2023-05-22T03:07:02.015Z,12.90
2023-05-22T03:09:30.366Z,12.90
2023-05-22T03:11:59.884Z,12.90
2023-05-22T03:14:29.210Z,12.90
2023-05-22T03:16:59.004Z,12.90
2023-05-22T03:19:27.462Z,12.90
2023-05-22T03:21:55.891Z,12.90
2023-05-22T03:24:24.242Z,12.80
2023-05-22T03:26:52.434Z,12.80
2023-05-22T03:29:22.139Z,12.80
2023-05-22T03:31:50.596Z,12.80
2023-05-22T03:34:18.779Z,12.90
2023-05-22T03:36:46.995Z,12.90
2023-05-22T03:39:15.299Z,12.90
2023-05-22T03:41:43.559Z,12.90
2023-05-22T03:44:11.669Z,12.90
2023-05-22T03:46:41.623Z,12.90
2023-05-22T03:49:09.756Z,12.90
2023-05-22T03:51:37.903Z,12.90
2023-05-22T03:54:06.592Z,12.90
2023-05-22T03:56:35.892Z,12.90
2023-05-22T03:59:04.096Z,12.90
2023-05-22T04:01:32.388Z,12.90
2023-05-22T04:04:02.090Z,12.90
2023-05-22T04:06:32.999Z,12.90
2023-05-22T04:09:02.388Z,12.90
2023-05-22T04:11:32.101Z,12.90
2023-05-22T04:14:05.173Z,13.00
2023-05-22T04:16:33.468Z,13.00
2023-05-22T04:19:03.570Z,13.00
2023-05-22T04:21:34.608Z,13.00
2023-05-22T04:24:07.158Z,13.00
2023-05-22T04:26:36.361Z,13.00
2023-05-22T04:29:06.484Z,13.10
2023-05-22T04:31:34.905Z,13.10
2023-05-22T04:34:05.384Z,13.10
2023-05-22T04:36:33.729Z,13.20
2023-05-22T04:39:05.019Z,13.20
2023-05-22T04:41:35.058Z,13.20
2023-05-22T04:44:04.160Z,13.20
2023-05-22T04:46:32.356Z,13.30
2023-05-22T04:49:02.457Z,13.30
2023-05-22T04:51:33.106Z,13.30
2023-05-22T04:54:01.447Z,13.30
2023-05-22T04:56:36.321Z,13.20
2023-05-22T04:59:09.146Z,13.20
2023-05-22T05:01:38.149Z,13.20
2023-05-22T05:04:06.992Z,13.30
2023-05-22T05:06:37.817Z,13.20
2023-05-22T05:09:06.590Z,13.20
2023-05-22T05:11:35.491Z,13.30
2023-05-22T05:14:03.739Z,13.30
2023-05-22T05:16:31.988Z,13.30
2023-05-22T05:19:00.358Z,13.20
2023-05-22T05:21:28.818Z,13.20
2023-05-22T05:23:58.535Z,13.20
2023-05-22T05:26:27.352Z,13.20
2023-05-22T05:28:56.771Z,13.20
2023-05-22T05:31:25.261Z,13.20
2023-05-22T05:33:56.713Z,13.20
2023-05-22T05:36:25.735Z,13.20
2023-05-22T05:38:54.375Z,13.20
2023-05-22T05:41:23.877Z,13.20
2023-05-22T05:43:52.796Z,13.20
2023-05-22T05:46:21.386Z,13.20
2023-05-22T05:48:49.567Z,13.20
2023-05-22T05:51:17.793Z,13.20
2023-05-22T05:53:46.294Z,13.30
2023-05-22T05:56:15.001Z,13.20
2023-05-22T05:58:44.620Z,13.30
2023-05-22T06:01:13.092Z,13.30
2023-05-22T06:03:41.455Z,13.40
2023-05-22T06:06:10.747Z,13.50
2023-05-22T06:08:39.381Z,13.50
2023-05-22T06:11:07.525Z,13.50
2023-05-22T06:13:35.706Z,13.50
2023-05-22T06:16:07.093Z,13.50
2023-05-22T06:18:35.372Z,13.50
2023-05-22T06:21:03.588Z,13.50
2023-05-22T06:23:32.451Z,13.50
2023-05-22T06:26:00.618Z,13.50
2023-05-22T06:28:28.810Z,13.50
2023-05-22T06:30:58.468Z,13.50
2023-05-22T06:33:28.096Z,13.50
2023-05-22T06:35:56.622Z,13.50
2023-05-22T06:38:25.215Z,13.60
2023-05-22T06:40:53.441Z,13.60
2023-05-22T06:43:21.878Z,13.70
2023-05-22T06:45:50.386Z,13.70
2023-05-22T06:48:18.607Z,13.80
2023-05-22T06:50:48.256Z,13.80
2023-05-22T06:53:16.594Z,13.90
2023-05-22T06:55:44.901Z,14.00
2023-05-22T06:58:13.231Z,14.00
2023-05-22T07:00:41.811Z,14.10
2023-05-22T07:03:10.263Z,14.10
2023-05-22T07:05:38.881Z,14.10
2023-05-22T07:08:09.661Z,14.10
2023-05-22T07:10:38.001Z,14.20
2023-05-22T07:13:06.496Z,14.20
2023-05-22T07:15:34.872Z,14.30
2023-05-22T07:18:03.335Z,14.40
2023-05-22T07:20:31.764Z,14.40
2023-05-22T07:23:00.049Z,14.40
2023-05-22T07:25:29.665Z,14.40
2023-05-22T07:27:58.491Z,14.40
2023-05-22T07:30:27.167Z,14.40
2023-05-22T07:32:55.704Z,14.40
2023-05-22T07:35:24.548Z,14.40
2023-05-22T07:37:53.432Z,14.40
2023-05-22T07:40:21.573Z,14.40
2023-05-22T07:42:51.166Z,14.40
2023-05-22T07:45:19.782Z,14.40
2023-05-22T07:47:48.156Z,14.30
2023-05-22T07:50:16.403Z,14.40
2023-05-22T07:52:45.834Z,14.40
2023-05-22T07:55:14.015Z,14.40
2023-05-22T07:57:43.664Z,14.50
2023-05-22T08:00:14.784Z,14.60
2023-05-22T08:02:43.111Z,14.70
2023-05-22T08:05:12.554Z,14.80
2023-05-22T08:07:41.781Z,14.90
2023-05-22T08:10:15.729Z,14.80
2023-05-22T08:12:44.491Z,14.80
2023-05-22T08:15:14.400Z,14.70
2023-05-22T08:17:42.664Z,14.80
2023-05-22T08:20:12.157Z,14.80
2023-05-22T08:22:41.385Z,14.90
2023-05-22T08:25:10.464Z,14.90
2023-05-22T08:27:38.924Z,15.00
2023-05-22T08:30:09.002Z,15.00
2023-05-22T08:32:38.826Z,15.00
2023-05-22T08:35:07.985Z,15.00
2023-05-22T08:38:14.719Z,15.00
2023-05-22T08:41:03.801Z,15.00
2023-05-22T08:43:31.991Z,15.20
2023-05-22T08:46:02.146Z,15.20
2023-05-22T08:48:33.774Z,15.20
2023-05-22T08:51:05.321Z,15.30
2023-05-22T08:53:36.776Z,15.30
2023-05-22T08:56:06.809Z,15.40
2023-05-22T08:58:38.032Z,15.40
2023-05-22T09:01:07.346Z,15.40
2023-05-22T09:03:37.863Z,15.50
2023-05-22T09:06:10.662Z,15.60
2023-05-22T09:08:39.454Z,15.60
2023-05-22T09:11:07.611Z,15.60
2023-05-22T09:13:36.229Z,15.70
2023-05-22T09:16:11.266Z,15.80
2023-05-22T09:18:42.251Z,16.00
2023-05-22T09:21:25.764Z,16.00
2023-05-22T09:24:01.896Z,16.20
2023-05-22T09:26:30.423Z,16.20
2023-05-22T09:29:01.212Z,16.10
2023-05-22T09:31:30.694Z,16.00
2023-05-22T09:34:00.567Z,16.10
2023-05-22T09:36:35.162Z,16.20
2023-05-22T09:39:05.057Z,16.30
2023-05-22T09:41:37.502Z,16.30
2023-05-22T09:44:14.076Z,16.40
2023-05-22T09:46:43.695Z,16.50
2023-05-22T09:49:16.384Z,16.50
2023-05-22T09:51:49.055Z,16.70
2023-05-22T09:54:19.871Z,16.70
2023-05-22T09:56:51.744Z,16.70
2023-05-22T09:59:23.589Z,16.80
2023-05-22T10:01:54.006Z,16.80
2023-05-22T10:04:24.965Z,16.80
2023-05-22T10:06:55.368Z,16.80
2023-05-22T10:09:30.669Z,16.70
2023-05-22T10:12:04.494Z,16.80
2023-05-22T10:14:33.307Z,16.90
2023-05-22T10:17:04.851Z,17.10
2023-05-22T10:19:38.722Z,17.10
2023-05-22T10:22:10.394Z,17.20
2023-05-22T10:24:40.302Z,17.30
2023-05-22T10:27:08.471Z,17.50
2023-05-22T10:29:43.932Z,17.60
2023-05-22T10:32:22.206Z,17.60
2023-05-22T10:35:00.700Z,17.50
2023-05-22T10:37:44.982Z,17.50
2023-05-22T10:40:16.027Z,17.50
2023-05-22T10:42:44.986Z,17.50
2023-05-22T10:45:13.440Z,17.50
2023-05-22T10:47:42.278Z,17.40
2023-05-22T10:50:13.630Z,17.40
2023-05-22T10:52:41.939Z,17.50
2023-05-22T10:55:11.736Z,17.50
2023-05-22T10:57:40.857Z,17.60
2023-05-22T11:00:14.326Z,17.60
2023-05-22T11:02:44.010Z,17.70
2023-05-22T11:06:09.780Z,17.80
2023-05-22T11:08:40.019Z,17.90
2023-05-22T11:11:14.943Z,17.90
2023-05-22T11:13:43.842Z,18.00
2023-05-22T11:16:12.477Z,18.00
2023-05-22T11:18:40.795Z,18.00
2023-05-22T11:21:13.725Z,18.00
2023-05-22T11:23:43.631Z,18.10
2023-05-22T11:26:27.249Z,18.10
2023-05-22T11:28:56.797Z,18.10
2023-05-22T11:31:26.852Z,18.10
2023-05-22T11:33:55.545Z,18.00
2023-05-22T11:36:24.680Z,18.00
2023-05-22T11:38:59.810Z,18.10
2023-05-22T11:41:33.742Z,18.10
2023-05-22T11:44:03.856Z,18.20
2023-05-22T11:46:32.346Z,18.30
2023-05-22T11:49:00.985Z,18.40
2023-05-22T11:51:29.534Z,18.40
2023-05-22T11:53:59.164Z,18.40
2023-05-22T11:56:27.575Z,18.30
2023-05-22T11:58:56.030Z,18.40
2023-05-22T12:01:24.160Z,18.30
2023-05-22T12:03:52.588Z,18.50
2023-05-22T12:06:21.174Z,18.70
2023-05-22T12:08:49.459Z,18.90
2023-05-22T12:11:19.197Z,19.10
2023-05-22T12:13:47.587Z,19.40
2023-05-22T12:16:21.971Z,19.80
2023-05-22T12:18:53.797Z,19.80
2023-05-22T12:21:22.140Z,19.80
2023-05-22T12:23:51.338Z,19.70
2023-05-22T12:26:21.483Z,19.80
2023-05-22T12:28:53.545Z,19.70
2023-05-22T12:31:22.680Z,19.60
2023-05-22T12:33:54.095Z,19.50
2023-05-22T12:36:22.679Z,19.30
2023-05-22T12:38:52.018Z,19.20
2023-05-22T12:41:21.584Z,19.20
2023-05-22T12:43:50.305Z,19.30
2023-05-22T12:46:18.526Z,19.40
2023-05-22T12:48:46.802Z,19.40
2023-05-22T12:51:15.806Z,19.40
2023-05-22T12:53:45.403Z,19.40
2023-05-22T12:56:13.603Z,19.40
2023-05-22T12:58:44.086Z,19.40
2023-05-22T13:01:12.657Z,19.50
2023-05-22T13:03:41.212Z,19.50
2023-05-22T13:06:12.555Z,19.50
2023-05-22T13:08:41.091Z,19.50
2023-05-22T13:11:09.238Z,19.50
2023-05-22T13:13:37.668Z,19.50
2023-05-22T13:16:07.633Z,19.50
2023-05-22T13:18:35.884Z,19.50
2023-05-22T13:21:04.171Z,19.50
2023-05-22T13:23:32.654Z,19.50
2023-05-22T13:26:02.091Z,19.40
2023-05-22T13:28:31.826Z,19.40
2023-05-22T13:31:00.408Z,19.40
2023-05-22T13:33:29.950Z,19.40
2023-05-22T13:35:58.343Z,19.30
2023-05-22T13:38:26.623Z,19.30
2023-05-22T13:40:54.921Z,19.40
2023-05-22T13:43:23.343Z,19.50
2023-05-22T13:45:51.847Z,19.60
2023-05-22T13:48:20.157Z,19.60
2023-05-22T13:50:49.976Z,19.70
2023-05-22T13:53:18.227Z,19.80
2023-05-22T13:55:46.549Z,19.80
2023-05-22T13:58:14.752Z,19.70
2023-05-22T14:00:43.231Z,19.80
2023-05-22T14:03:17.778Z,19.70
2023-05-22T14:05:46.513Z,19.40
2023-05-22T14:08:16.108Z,19.30
2023-05-22T14:10:44.595Z,19.20
2023-05-22T14:13:13.045Z,19.20
2023-05-22T14:15:42.573Z,19.20
2023-05-22T14:18:11.525Z,19.20
2023-05-22T14:20:39.931Z,19.20
2023-05-22T14:23:08.066Z,19.20
2023-05-22T14:25:37.798Z,19.10
2023-05-22T14:28:06.457Z,19.00
2023-05-22T14:30:34.660Z,18.90
2023-05-22T14:33:02.938Z,18.90
2023-05-22T14:35:31.254Z,18.80
2023-05-22T14:37:59.456Z,18.70
2023-05-22T14:40:27.758Z,18.60
2023-05-22T14:42:57.694Z,18.70
2023-05-22T14:45:25.907Z,18.70
2023-05-22T14:47:54.187Z,18.70
2023-05-22T14:50:22.791Z,18.80
2023-05-22T14:52:51.315Z,18.90
2023-05-22T14:55:41.157Z,19.00
2023-05-22T14:58:11.023Z,19.00
2023-05-22T15:00:39.348Z,19.00
2023-05-22T15:03:08.071Z,19.00
2023-05-22T15:05:36.383Z,18.90
2023-05-22T15:08:04.556Z,18.80
2023-05-22T15:10:32.904Z,18.80
2023-05-22T15:13:01.078Z,18.80
2023-05-22T15:15:30.719Z,18.80
2023-05-22T15:18:02.843Z,18.70
2023-05-22T15:20:31.205Z,18.70
2023-05-22T15:23:00.696Z,18.70
2023-05-22T15:25:29.436Z,18.70
2023-05-22T15:27:58.237Z,18.70
2023-05-22T15:30:27.347Z,18.70
2023-05-22T15:32:56.974Z,18.70
2023-05-22T15:35:25.377Z,18.70
2023-05-22T15:37:53.791Z,18.60
2023-05-22T15:40:22.845Z,18.60
2023-05-22T15:42:51.130Z,18.70
2023-05-22T15:45:19.689Z,18.60
2023-05-22T15:47:48.125Z,18.70
2023-05-22T15:50:17.833Z,18.70
2023-05-22T15:52:46.172Z,18.70
2023-05-22T15:55:14.545Z,18.60
2023-05-22T15:57:42.703Z,18.70
2023-05-22T16:00:12.580Z,18.80
2023-05-22T16:02:40.894Z,18.90
2023-05-22T16:05:09.777Z,19.00
2023-05-22T16:07:39.457Z,19.10
2023-05-22T16:10:08.744Z,19.10
2023-05-22T16:12:36.953Z,19.00
2023-05-22T16:15:06.982Z,18.90
2023-05-22T16:17:35.640Z,18.80
2023-05-22T16:20:05.351Z,18.60
2023-05-22T16:22:47.431Z,18.50
2023-05-22T16:25:18.928Z,18.40
2023-05-22T16:27:47.281Z,18.30
2023-05-22T16:30:17.328Z,18.10
2023-05-22T16:32:46.368Z,18.10
2023-05-22T16:35:14.879Z,17.90
2023-05-22T16:37:43.069Z,17.90
2023-05-22T16:40:11.853Z,17.90
2023-05-22T16:42:41.475Z,17.90
2023-05-22T16:45:10.489Z,17.90
2023-05-22T16:47:38.885Z,17.90
2023-05-22T16:50:08.716Z,17.90
2023-05-22T16:52:36.913Z,17.90
2023-05-22T16:55:05.692Z,17.90
2023-05-22T16:57:34.313Z,18.00
2023-05-22T17:00:04.097Z,18.00
2023-05-22T17:02:32.568Z,17.90
2023-05-22T17:05:01.010Z,17.80
2023-05-22T17:07:31.719Z,17.80
2023-05-22T17:10:00.268Z,17.70
2023-05-22T17:12:28.764Z,17.70
2023-05-22T17:14:56.953Z,17.70
2023-05-22T17:17:26.594Z,17.70
2023-05-22T17:19:54.934Z,17.70
2023-05-22T17:22:23.103Z,17.80
2023-05-22T17:24:51.444Z,17.80
2023-05-22T17:27:34.365Z,17.90
2023-05-22T17:30:03.803Z,17.90
2023-05-22T17:32:33.649Z,17.80
2023-05-22T17:35:02.339Z,17.90
2023-05-22T17:37:30.674Z,17.80
2023-05-22T17:39:59.118Z,17.90
2023-05-22T17:42:27.352Z,18.10
2023-05-22T17:44:55.574Z,18.30
2023-05-22T17:47:23.890Z,18.40
2023-05-22T17:49:53.392Z,18.40
2023-05-22T17:52:21.674Z,18.40
2023-05-22T17:54:50.395Z,18.40
2023-05-22T17:57:18.699Z,18.30
2023-05-22T17:59:47.037Z,18.20
2023-05-22T18:02:15.372Z,18.30
2023-05-22T18:04:43.652Z,18.30
2023-05-22T18:07:13.531Z,18.30
2023-05-22T18:09:41.809Z,18.30
2023-05-22T18:12:15.249Z,18.30
2023-05-22T18:14:53.106Z,18.30
2023-05-22T18:17:21.307Z,18.30
2023-05-22T18:19:49.619Z,18.30
2023-05-22T18:22:19.436Z,18.30
2023-05-22T18:24:47.551Z,18.40
2023-05-22T18:27:15.803Z,18.40
2023-05-22T18:29:44.279Z,18.50
2023-05-22T18:32:13.864Z,18.40
2023-05-22T18:34:42.114Z,18.40
2023-05-22T18:37:11.503Z,18.40
2023-05-22T18:39:41.147Z,18.30
2023-05-22T18:42:09.484Z,18.10
2023-05-22T18:44:37.837Z,18.10
2023-05-22T18:47:06.625Z,18.00
2023-05-22T18:49:34.874Z,17.80
2023-05-22T18:52:03.425Z,17.70
2023-05-22T18:54:31.590Z,17.60
2023-05-22T18:57:01.285Z,17.40
2023-05-22T18:59:29.940Z,17.30
2023-05-22T19:01:58.140Z,17.20
2023-05-22T19:04:26.516Z,17.10
2023-05-22T19:06:54.950Z,17.00
2023-05-22T19:09:23.106Z,16.80
2023-05-22T19:11:51.365Z,16.70
2023-05-22T19:14:21.185Z,16.60
2023-05-22T19:16:49.389Z,16.50
2023-05-22T19:19:17.770Z,16.40
2023-05-22T19:21:46.263Z,16.30
2023-05-22T19:24:14.509Z,16.20
2023-05-22T19:26:42.887Z,16.10
2023-05-22T19:29:11.357Z,15.90
2023-05-22T19:31:41.057Z,15.80
2023-05-22T19:34:09.313Z,15.60
2023-05-22T19:36:37.940Z,15.60
2023-05-22T19:39:06.371Z,15.50
2023-05-22T19:41:34.579Z,15.40
2023-05-22T19:44:03.132Z,15.30
2023-05-22T19:46:31.401Z,15.20
2023-05-22T19:49:01.097Z,15.10
2023-05-22T19:51:29.773Z,15.00
2023-05-22T19:53:57.955Z,15.00
2023-05-22T19:56:26.138Z,15.00
2023-05-22T19:58:54.527Z,14.90
2023-05-22T20:01:22.734Z,14.90
2023-05-22T20:03:51.047Z,14.80
2023-05-22T20:06:21.099Z,14.80
2023-05-22T20:08:49.340Z,14.70
2023-05-22T20:11:17.538Z,14.60
2023-05-22T20:13:46.362Z,14.60
2023-05-22T20:16:15.852Z,14.60
2023-05-22T20:18:44.641Z,14.50
2023-05-22T20:21:13.205Z,14.50
2023-05-22T20:23:42.876Z,14.40
2023-05-22T20:26:11.040Z,14.40
2023-05-22T20:28:39.461Z,14.30
2023-05-22T20:31:07.652Z,14.40
2023-05-22T20:33:35.889Z,14.40
2023-05-22T20:36:04.438Z,14.40
2023-05-22T20:38:34.797Z,14.40
2023-05-22T20:41:08.644Z,14.40
2023-05-22T20:43:38.074Z,14.40
2023-05-22T20:46:06.317Z,14.40
2023-05-22T20:48:34.659Z,14.40
2023-05-22T20:51:03.029Z,14.40
2023-05-22T20:53:31.341Z,14.40
2023-05-22T20:55:59.599Z,14.40
2023-05-22T20:58:29.205Z,14.40
2023-05-22T21:00:57.726Z,14.40
2023-05-22T21:03:26.209Z,14.40
2023-05-22T21:05:54.901Z,14.30
2023-05-22T21:08:23.099Z,14.30
2023-05-22T21:10:51.349Z,14.30
2023-05-22T21:13:20.522Z,14.30
2023-05-22T21:15:50.250Z,14.40
2023-05-22T21:18:19.818Z,14.30
2023-05-22T21:20:48.288Z,14.40
2023-05-22T21:23:16.725Z,14.30
2023-05-22T21:25:45.040Z,14.40
2023-05-22T21:28:13.369Z,14.40
2023-05-22T21:30:41.704Z,14.40
2023-05-22T21:33:11.667Z,14.40
2023-05-22T21:35:40.196Z,14.40
2023-05-22T21:38:08.321Z,14.30
2023-05-22T21:40:36.722Z,14.30
2023-05-22T21:43:05.481Z,14.20
2023-05-22T21:45:33.725Z,14.30
2023-05-22T21:48:02.189Z,14.30
2023-05-22T21:50:32.265Z,14.20
2023-05-22T21:53:00.494Z,14.20
2023-05-22T21:55:28.985Z,14.20
2023-05-22T21:57:57.476Z,14.20
2023-05-22T22:00:25.869Z,14.10
2023-05-22T22:02:55.332Z,14.10
2023-05-22T22:05:26.007Z,14.00
2023-05-22T22:07:55.632Z,14.00
2023-05-22T22:10:24.249Z,13.90
2023-05-22T22:12:52.374Z,13.90
2023-05-22T22:15:21.766Z,13.80
2023-05-22T22:17:52.373Z,13.80
2023-05-22T22:20:30.282Z,13.80
2023-05-22T22:23:03.898Z,13.70
2023-05-22T22:25:32.050Z,13.80
2023-05-22T22:28:00.226Z,13.70
2023-05-22T22:30:28.677Z,13.70
2023-05-22T22:32:56.876Z,13.70
2023-05-22T22:35:25.069Z,13.70
2023-05-22T22:37:53.432Z,13.60
2023-05-22T22:40:38.027Z,13.50
2023-05-22T22:43:06.639Z,13.50
2023-05-22T22:45:34.813Z,13.50
2023-05-22T22:48:03.533Z,13.40
2023-05-22T22:50:32.333Z,13.40
2023-05-22T22:53:00.676Z,13.30
2023-05-22T22:55:30.524Z,13.30
2023-05-22T22:57:59.906Z,13.30
2023-05-22T23:00:28.422Z,13.30
2023-05-22T23:02:56.749Z,13.30
2023-05-22T23:05:25.321Z,13.30
2023-05-22T23:07:53.521Z,13.30
2023-05-22T23:10:22.398Z,13.30
2023-05-22T23:12:52.069Z,13.30
2023-05-22T23:15:20.382Z,13.30
2023-05-22T23:17:50.243Z,13.20
2023-05-22T23:20:20.308Z,13.30
2023-05-22T23:22:48.571Z,13.30
2023-05-22T23:25:16.860Z,13.30
2023-05-22T23:27:45.183Z,13.30
2023-05-22T23:30:15.112Z,13.30
2023-05-22T23:32:43.283Z,13.30
2023-05-22T23:35:11.847Z,13.30
2023-05-22T23:37:40.029Z,13.30
2023-05-22T23:40:09.655Z,13.30
2023-05-22T23:42:38.382Z,13.20
2023-05-22T23:45:07.522Z,13.20
2023-05-22T23:47:37.164Z,13.20
2023-05-22T23:50:06.185Z,13.20
2023-05-22T23:52:34.403Z,13.20
2023-05-22T23:55:02.627Z,13.20
2023-05-22T23:57:31.271Z,13.10
2023-05-22T23:59:59.534Z,13.10
